sensor_id;sensor_type;location;lat;lon;timestamp;P1;durP1;ratioP1;P2;durP2;ratioP2
50976;SDS011;36992;48.200;12.418;2023-03-14T00:01:36;0.98;;;0.22;;
50976;SDS011;36992;48.200;12.418;2023-03-14T00:04:03;0.98;;;0.30;;
50976;SDS011;36992;48.200;12.418;2023-03-14T00:06:30;1.25;;;0.20;;
50976;SDS011;36992;48.200;12.418;2023-03-14T00:08:57;1.15;;;0.22;;
50976;SDS011;36992;48.200;12.418;2023-03-14T00:11:25;0.88;;;0.20;;
50976;SDS011;36992;48.200;12.418;2023-03-14T00:13:52;2.70;;;0.45;;
50976;SDS011;36992;48.200;12.418;2023-03-14T00:16:19;2.03;;;0.30;;
50976;SDS011;36992;48.200;12.418;2023-03-14T00:18:45;1.85;;;0.35;;
50976;SDS011;36992;48.200;12.418;2023-03-14T00:21:12;1.98;;;0.57;;
50976;SDS011;36992;48.200;12.418;2023-03-14T00:23:39;1.42;;;0.28;;
50976;SDS011;36992;48.200;12.418;2023-03-14T00:26:08;1.02;;;0.20;;
50976;SDS011;36992;48.200;12.418;2023-03-14T00:28:37;1.20;;;0.20;;
50976;SDS011;36992;48.200;12.418;2023-03-14T00:31:04;0.75;;;0.17;;
50976;SDS011;36992;48.200;12.418;2023-03-14T00:33:31;0.95;;;0.38;;
50976;SDS011;36992;48.200;12.418;2023-03-14T00:35:58;0.68;;;0.10;;
50976;SDS011;36992;48.200;12.418;2023-03-14T00:38:26;1.00;;;0.20;;
50976;SDS011;36992;48.200;12.418;2023-03-14T00:40:53;0.95;;;0.20;;
50976;SDS011;36992;48.200;12.418;2023-03-14T00:43:20;1.02;;;0.35;;
50976;SDS011;36992;48.200;12.418;2023-03-14T00:45:49;1.35;;;0.28;;
50976;SDS011;36992;48.200;12.418;2023-03-14T00:48:16;1.08;;;0.20;;
50976;SDS011;36992;48.200;12.418;2023-03-14T00:50:42;1.83;;;0.50;;
50976;SDS011;36992;48.200;12.418;2023-03-14T00:53:09;2.75;;;0.90;;
50976;SDS011;36992;48.200;12.418;2023-03-14T00:55:36;3.00;;;1.20;;
50976;SDS011;36992;48.200;12.418;2023-03-14T00:58:03;1.25;;;0.50;;
50976;SDS011;36992;48.200;12.418;2023-03-14T01:00:29;0.88;;;0.30;;
50976;SDS011;36992;48.200;12.418;2023-03-14T01:02:57;0.95;;;0.35;;
50976;SDS011;36992;48.200;12.418;2023-03-14T01:05:23;0.98;;;0.30;;
50976;SDS011;36992;48.200;12.418;2023-03-14T01:07:50;1.13;;;0.38;;
50976;SDS011;36992;48.200;12.418;2023-03-14T01:10:17;0.82;;;0.20;;
50976;SDS011;36992;48.200;12.418;2023-03-14T01:12:44;2.05;;;0.35;;
50976;SDS011;36992;48.200;12.418;2023-03-14T01:15:10;1.23;;;0.40;;
50976;SDS011;36992;48.200;12.418;2023-03-14T01:17:37;1.20;;;0.38;;
50976;SDS011;36992;48.200;12.418;2023-03-14T01:20:06;3.63;;;0.32;;
50976;SDS011;36992;48.200;12.418;2023-03-14T01:22:34;0.75;;;0.25;;
50976;SDS011;36992;48.200;12.418;2023-03-14T01:25:01;0.75;;;0.20;;
50976;SDS011;36992;48.200;12.418;2023-03-14T01:27:28;0.75;;;0.20;;
50976;SDS011;36992;48.200;12.418;2023-03-14T01:29:54;0.50;;;0.20;;
50976;SDS011;36992;48.200;12.418;2023-03-14T01:32:20;1.23;;;0.30;;
50976;SDS011;36992;48.200;12.418;2023-03-14T01:34:48;0.55;;;0.10;;
50976;SDS011;36992;48.200;12.418;2023-03-14T01:37:16;1.45;;;0.32;;
50976;SDS011;36992;48.200;12.418;2023-03-14T01:39:43;1.35;;;0.25;;
50976;SDS011;36992;48.200;12.418;2023-03-14T01:42:09;0.57;;;0.17;;
50976;SDS011;36992;48.200;12.418;2023-03-14T01:44:48;1.30;;;0.30;;
50976;SDS011;36992;48.200;12.418;2023-03-14T01:47:16;0.52;;;0.20;;
50976;SDS011;36992;48.200;12.418;2023-03-14T01:49:43;0.60;;;0.10;;
50976;SDS011;36992;48.200;12.418;2023-03-14T01:52:12;2.33;;;0.20;;
50976;SDS011;36992;48.200;12.418;2023-03-14T01:54:44;0.50;;;0.10;;
50976;SDS011;36992;48.200;12.418;2023-03-14T01:57:14;0.35;;;0.17;;
50976;SDS011;36992;48.200;12.418;2023-03-14T01:59:45;0.50;;;0.10;;
50976;SDS011;36992;48.200;12.418;2023-03-14T02:02:14;0.77;;;0.20;;
50976;SDS011;36992;48.200;12.418;2023-03-14T02:04:41;0.95;;;0.30;;
50976;SDS011;36992;48.200;12.418;2023-03-14T02:07:10;2.83;;;0.22;;
50976;SDS011;36992;48.200;12.418;2023-03-14T02:09:41;1.10;;;0.30;;
50976;SDS011;36992;48.200;12.418;2023-03-14T02:12:10;0.77;;;0.30;;
50976;SDS011;36992;48.200;12.418;2023-03-14T02:14:39;1.00;;;0.30;;
50976;SDS011;36992;48.200;12.418;2023-03-14T02:17:07;0.77;;;0.20;;
50976;SDS011;36992;48.200;12.418;2023-03-14T02:19:36;0.60;;;0.20;;
50976;SDS011;36992;48.200;12.418;2023-03-14T02:22:12;1.52;;;0.20;;
50976;SDS011;36992;48.200;12.418;2023-03-14T02:24:43;0.40;;;0.10;;
50976;SDS011;36992;48.200;12.418;2023-03-14T02:27:18;1.95;;;0.10;;
50976;SDS011;36992;48.200;12.418;2023-03-14T02:29:48;0.88;;;0.20;;
50976;SDS011;36992;48.200;12.418;2023-03-14T02:32:18;0.22;;;0.08;;
50976;SDS011;36992;48.200;12.418;2023-03-14T02:34:46;0.85;;;0.17;;
50976;SDS011;36992;48.200;12.418;2023-03-14T02:37:16;0.45;;;0.10;;
50976;SDS011;36992;48.200;12.418;2023-03-14T02:39:45;1.98;;;0.10;;
50976;SDS011;36992;48.200;12.418;2023-03-14T02:42:14;0.00;;;0.00;;
50976;SDS011;36992;48.200;12.418;2023-03-14T02:44:54;0.50;;;0.10;;
50976;SDS011;36992;48.200;12.418;2023-03-14T02:47:27;0.08;;;0.00;;
50976;SDS011;36992;48.200;12.418;2023-03-14T02:49:58;0.30;;;0.05;;
50976;SDS011;36992;48.200;12.418;2023-03-14T02:52:27;0.00;;;0.00;;
50976;SDS011;36992;48.200;12.418;2023-03-14T02:54:54;0.63;;;0.03;;
50976;SDS011;36992;48.200;12.418;2023-03-14T02:57:20;1.05;;;0.00;;
50976;SDS011;36992;48.200;12.418;2023-03-14T02:59:47;0.50;;;0.00;;
50976;SDS011;36992;48.200;12.418;2023-03-14T03:02:15;1.45;;;0.00;;
50976;SDS011;36992;48.200;12.418;2023-03-14T03:04:41;0.00;;;0.00;;
50976;SDS011;36992;48.200;12.418;2023-03-14T03:07:08;0.70;;;0.00;;
50976;SDS011;36992;48.200;12.418;2023-03-14T03:09:34;0.32;;;0.00;;
50976;SDS011;36992;48.200;12.418;2023-03-14T03:12:01;0.00;;;0.00;;
50976;SDS011;36992;48.200;12.418;2023-03-14T03:14:27;0.20;;;0.00;;
50976;SDS011;36992;48.200;12.418;2023-03-14T03:16:54;0.40;;;0.00;;
50976;SDS011;36992;48.200;12.418;2023-03-14T03:19:22;0.38;;;0.10;;
50976;SDS011;36992;48.200;12.418;2023-03-14T03:21:48;0.55;;;0.20;;
50976;SDS011;36992;48.200;12.418;2023-03-14T03:24:15;0.40;;;0.00;;
50976;SDS011;36992;48.200;12.418;2023-03-14T03:26:41;0.00;;;0.00;;
50976;SDS011;36992;48.200;12.418;2023-03-14T03:29:08;0.00;;;0.00;;
50976;SDS011;36992;48.200;12.418;2023-03-14T03:31:36;0.30;;;0.00;;
50976;SDS011;36992;48.200;12.418;2023-03-14T03:34:03;0.47;;;0.00;;
50976;SDS011;36992;48.200;12.418;2023-03-14T03:36:31;0.17;;;0.05;;
50976;SDS011;36992;48.200;12.418;2023-03-14T03:38:57;0.38;;;0.00;;
50976;SDS011;36992;48.200;12.418;2023-03-14T03:41:23;0.10;;;0.00;;
50976;SDS011;36992;48.200;12.418;2023-03-14T03:43:50;0.00;;;0.00;;
50976;SDS011;36992;48.200;12.418;2023-03-14T03:46:16;0.00;;;0.00;;
50976;SDS011;36992;48.200;12.418;2023-03-14T03:48:43;0.08;;;0.00;;
50976;SDS011;36992;48.200;12.418;2023-03-14T03:51:12;0.00;;;0.00;;
50976;SDS011;36992;48.200;12.418;2023-03-14T03:53:40;0.10;;;0.00;;
50976;SDS011;36992;48.200;12.418;2023-03-14T03:56:07;0.00;;;0.00;;
50976;SDS011;36992;48.200;12.418;2023-03-14T03:58:34;0.13;;;0.00;;
50976;SDS011;36992;48.200;12.418;2023-03-14T04:01:02;0.00;;;0.00;;
50976;SDS011;36992;48.200;12.418;2023-03-14T04:03:29;0.17;;;0.00;;
50976;SDS011;36992;48.200;12.418;2023-03-14T04:05:58;0.00;;;0.00;;
50976;SDS011;36992;48.200;12.418;2023-03-14T04:08:25;0.00;;;0.00;;
50976;SDS011;36992;48.200;12.418;2023-03-14T04:10:55;0.00;;;0.00;;
50976;SDS011;36992;48.200;12.418;2023-03-14T04:13:22;0.10;;;0.00;;
50976;SDS011;36992;48.200;12.418;2023-03-14T04:15:48;1.15;;;0.10;;
50976;SDS011;36992;48.200;12.418;2023-03-14T04:18:15;0.57;;;0.00;;
50976;SDS011;36992;48.200;12.418;2023-03-14T04:20:42;0.00;;;0.00;;
50976;SDS011;36992;48.200;12.418;2023-03-14T04:23:08;0.15;;;0.00;;
50976;SDS011;36992;48.200;12.418;2023-03-14T04:25:35;0.20;;;0.00;;
50976;SDS011;36992;48.200;12.418;2023-03-14T04:28:03;0.47;;;0.00;;
50976;SDS011;36992;48.200;12.418;2023-03-14T04:30:30;0.05;;;0.00;;
50976;SDS011;36992;48.200;12.418;2023-03-14T04:32:56;0.00;;;0.00;;
50976;SDS011;36992;48.200;12.418;2023-03-14T04:35:22;0.08;;;0.00;;
50976;SDS011;36992;48.200;12.418;2023-03-14T04:37:49;0.30;;;0.00;;
50976;SDS011;36992;48.200;12.418;2023-03-14T04:40:17;0.00;;;0.00;;
50976;SDS011;36992;48.200;12.418;2023-03-14T04:42:44;0.10;;;0.00;;
50976;SDS011;36992;48.200;12.418;2023-03-14T04:45:11;0.38;;;0.00;;
50976;SDS011;36992;48.200;12.418;2023-03-14T04:47:38;0.40;;;0.00;;
50976;SDS011;36992;48.200;12.418;2023-03-14T04:50:05;0.15;;;0.00;;
50976;SDS011;36992;48.200;12.418;2023-03-14T04:52:31;0.00;;;0.00;;
50976;SDS011;36992;48.200;12.418;2023-03-14T04:54:58;0.10;;;0.00;;
50976;SDS011;36992;48.200;12.418;2023-03-14T04:57:24;1.05;;;0.00;;
50976;SDS011;36992;48.200;12.418;2023-03-14T04:59:51;0.65;;;0.00;;
50976;SDS011;36992;48.200;12.418;2023-03-14T05:02:19;0.73;;;0.10;;
50976;SDS011;36992;48.200;12.418;2023-03-14T05:04:45;2.08;;;0.00;;
50976;SDS011;36992;48.200;12.418;2023-03-14T05:07:12;1.00;;;0.00;;
50976;SDS011;36992;48.200;12.418;2023-03-14T05:09:38;0.20;;;0.00;;
50976;SDS011;36992;48.200;12.418;2023-03-14T05:12:05;0.35;;;0.08;;
50976;SDS011;36992;48.200;12.418;2023-03-14T05:14:31;0.00;;;0.00;;
50976;SDS011;36992;48.200;12.418;2023-03-14T05:16:58;0.32;;;0.00;;
50976;SDS011;36992;48.200;12.418;2023-03-14T05:19:26;0.17;;;0.05;;
50976;SDS011;36992;48.200;12.418;2023-03-14T05:21:52;0.20;;;0.00;;
50976;SDS011;36992;48.200;12.418;2023-03-14T05:24:18;0.15;;;0.00;;
50976;SDS011;36992;48.200;12.418;2023-03-14T05:26:45;0.10;;;0.00;;
50976;SDS011;36992;48.200;12.418;2023-03-14T05:29:11;0.20;;;0.00;;
50976;SDS011;36992;48.200;12.418;2023-03-14T05:31:38;0.43;;;0.10;;
50976;SDS011;36992;48.200;12.418;2023-03-14T05:34:04;0.00;;;0.00;;
50976;SDS011;36992;48.200;12.418;2023-03-14T05:36:32;1.42;;;0.10;;
50976;SDS011;36992;48.200;12.418;2023-03-14T05:38:59;0.00;;;0.00;;
50976;SDS011;36992;48.200;12.418;2023-03-14T05:41:25;0.20;;;0.00;;
50976;SDS011;36992;48.200;12.418;2023-03-14T05:43:52;0.52;;;0.03;;
50976;SDS011;36992;48.200;12.418;2023-03-14T05:46:18;0.30;;;0.08;;
50976;SDS011;36992;48.200;12.418;2023-03-14T05:48:45;1.00;;;0.20;;
50976;SDS011;36992;48.200;12.418;2023-03-14T05:51:11;0.82;;;0.20;;
50976;SDS011;36992;48.200;12.418;2023-03-14T05:53:39;0.35;;;0.10;;
50976;SDS011;36992;48.200;12.418;2023-03-14T05:56:06;0.05;;;0.00;;
50976;SDS011;36992;48.200;12.418;2023-03-14T05:58:33;0.20;;;0.00;;
50976;SDS011;36992;48.200;12.418;2023-03-14T06:01:01;0.00;;;0.00;;
50976;SDS011;36992;48.200;12.418;2023-03-14T06:03:28;0.10;;;0.00;;
50976;SDS011;36992;48.200;12.418;2023-03-14T06:05:54;0.25;;;0.00;;
50976;SDS011;36992;48.200;12.418;2023-03-14T06:08:21;0.40;;;0.10;;
50976;SDS011;36992;48.200;12.418;2023-03-14T06:10:49;0.40;;;0.00;;
50976;SDS011;36992;48.200;12.418;2023-03-14T06:13:15;0.30;;;0.00;;
50976;SDS011;36992;48.200;12.418;2023-03-14T06:15:42;0.10;;;0.00;;
50976;SDS011;36992;48.200;12.418;2023-03-14T06:18:08;0.08;;;0.00;;
50976;SDS011;36992;48.200;12.418;2023-03-14T06:20:35;0.03;;;0.00;;
50976;SDS011;36992;48.200;12.418;2023-03-14T06:23:04;0.35;;;0.00;;
50976;SDS011;36992;48.200;12.418;2023-03-14T06:25:30;0.20;;;0.10;;
50976;SDS011;36992;48.200;12.418;2023-03-14T06:27:58;0.35;;;0.00;;
50976;SDS011;36992;48.200;12.418;2023-03-14T06:30:25;0.20;;;0.00;;
50976;SDS011;36992;48.200;12.418;2023-03-14T06:32:51;0.38;;;0.10;;
50976;SDS011;36992;48.200;12.418;2023-03-14T06:35:18;0.22;;;0.00;;
50976;SDS011;36992;48.200;12.418;2023-03-14T06:37:44;0.30;;;0.00;;
50976;SDS011;36992;48.200;12.418;2023-03-14T06:40:11;0.08;;;0.00;;
50976;SDS011;36992;48.200;12.418;2023-03-14T06:42:41;0.65;;;0.05;;
50976;SDS011;36992;48.200;12.418;2023-03-14T06:45:10;0.32;;;0.00;;
50976;SDS011;36992;48.200;12.418;2023-03-14T06:47:36;1.88;;;0.00;;
50976;SDS011;36992;48.200;12.418;2023-03-14T06:50:03;0.00;;;0.00;;
50976;SDS011;36992;48.200;12.418;2023-03-14T06:52:31;1.25;;;0.10;;
50976;SDS011;36992;48.200;12.418;2023-03-14T06:54:57;0.68;;;0.10;;
50976;SDS011;36992;48.200;12.418;2023-03-14T06:57:24;0.20;;;0.00;;
50976;SDS011;36992;48.200;12.418;2023-03-14T06:59:50;0.55;;;0.10;;
50976;SDS011;36992;48.200;12.418;2023-03-14T07:02:18;2.05;;;0.20;;
50976;SDS011;36992;48.200;12.418;2023-03-14T07:04:44;0.10;;;0.08;;
50976;SDS011;36992;48.200;12.418;2023-03-14T07:07:11;0.13;;;0.05;;
50976;SDS011;36992;48.200;12.418;2023-03-14T07:09:37;0.05;;;0.00;;
50976;SDS011;36992;48.200;12.418;2023-03-14T07:12:04;0.10;;;0.00;;
50976;SDS011;36992;48.200;12.418;2023-03-14T07:14:31;0.50;;;0.10;;
50976;SDS011;36992;48.200;12.418;2023-03-14T07:16:58;1.85;;;0.00;;
50976;SDS011;36992;48.200;12.418;2023-03-14T07:19:26;0.17;;;0.00;;
50976;SDS011;36992;48.200;12.418;2023-03-14T07:21:52;0.28;;;0.00;;
50976;SDS011;36992;48.200;12.418;2023-03-14T07:24:19;0.47;;;0.03;;
50976;SDS011;36992;48.200;12.418;2023-03-14T07:26:45;0.28;;;0.00;;
50976;SDS011;36992;48.200;12.418;2023-03-14T07:29:12;0.30;;;0.00;;
50976;SDS011;36992;48.200;12.418;2023-03-14T07:31:38;0.65;;;0.10;;
50976;SDS011;36992;48.200;12.418;2023-03-14T07:34:05;0.38;;;0.03;;
50976;SDS011;36992;48.200;12.418;2023-03-14T07:36:32;0.15;;;0.00;;
50976;SDS011;36992;48.200;12.418;2023-03-14T07:38:59;0.10;;;0.10;;
50976;SDS011;36992;48.200;12.418;2023-03-14T07:41:25;0.05;;;0.00;;
50976;SDS011;36992;48.200;12.418;2023-03-14T07:43:52;0.08;;;0.00;;
50976;SDS011;36992;48.200;12.418;2023-03-14T07:46:18;0.63;;;0.05;;
50976;SDS011;36992;48.200;12.418;2023-03-14T07:48:45;0.00;;;0.00;;
50976;SDS011;36992;48.200;12.418;2023-03-14T07:51:11;1.75;;;0.10;;
50976;SDS011;36992;48.200;12.418;2023-03-14T07:53:39;1.20;;;0.35;;
50976;SDS011;36992;48.200;12.418;2023-03-14T07:56:06;0.20;;;0.00;;
50976;SDS011;36992;48.200;12.418;2023-03-14T07:58:33;0.08;;;0.00;;
50976;SDS011;36992;48.200;12.418;2023-03-14T08:00:59;0.00;;;0.00;;
50976;SDS011;36992;48.200;12.418;2023-03-14T08:03:26;0.05;;;0.00;;
50976;SDS011;36992;48.200;12.418;2023-03-14T08:05:52;0.20;;;0.08;;
50976;SDS011;36992;48.200;12.418;2023-03-14T08:08:19;0.30;;;0.00;;
50976;SDS011;36992;48.200;12.418;2023-03-14T08:10:47;0.70;;;0.00;;
50976;SDS011;36992;48.200;12.418;2023-03-14T08:13:13;0.00;;;0.00;;
50976;SDS011;36992;48.200;12.418;2023-03-14T08:15:40;0.10;;;0.00;;
50976;SDS011;36992;48.200;12.418;2023-03-14T08:18:07;0.45;;;0.10;;
50976;SDS011;36992;48.200;12.418;2023-03-14T08:20:33;0.25;;;0.05;;
50976;SDS011;36992;48.200;12.418;2023-03-14T08:23:01;1.42;;;0.30;;
50976;SDS011;36992;48.200;12.418;2023-03-14T08:25:28;0.98;;;0.28;;
50976;SDS011;36992;48.200;12.418;2023-03-14T08:27:56;0.73;;;0.20;;
50976;SDS011;36992;48.200;12.418;2023-03-14T08:30:22;0.57;;;0.15;;
50976;SDS011;36992;48.200;12.418;2023-03-14T08:32:49;0.28;;;0.10;;
50976;SDS011;36992;48.200;12.418;2023-03-14T08:35:16;0.43;;;0.10;;
50976;SDS011;36992;48.200;12.418;2023-03-14T08:37:42;0.98;;;0.22;;
50976;SDS011;36992;48.200;12.418;2023-03-14T08:40:09;2.80;;;0.45;;
50976;SDS011;36992;48.200;12.418;2023-03-14T08:42:37;1.85;;;0.40;;
50976;SDS011;36992;48.200;12.418;2023-03-14T08:45:06;0.80;;;0.25;;
50976;SDS011;36992;48.200;12.418;2023-03-14T08:47:33;1.27;;;0.30;;
50976;SDS011;36992;48.200;12.418;2023-03-14T08:50:00;1.17;;;0.40;;
50976;SDS011;36992;48.200;12.418;2023-03-14T08:52:27;0.75;;;0.30;;
50976;SDS011;36992;48.200;12.418;2023-03-14T08:54:53;0.70;;;0.10;;
50976;SDS011;36992;48.200;12.418;2023-03-14T08:57:19;1.13;;;0.20;;
50976;SDS011;36992;48.200;12.418;2023-03-14T08:59:46;2.25;;;0.50;;
50976;SDS011;36992;48.200;12.418;2023-03-14T09:02:14;0.52;;;0.10;;
50976;SDS011;36992;48.200;12.418;2023-03-14T09:04:41;0.68;;;0.20;;
50976;SDS011;36992;48.200;12.418;2023-03-14T09:07:07;1.92;;;0.30;;
50976;SDS011;36992;48.200;12.418;2023-03-14T09:09:34;0.57;;;0.13;;
50976;SDS011;36992;48.200;12.418;2023-03-14T09:12:00;2.97;;;0.20;;
50976;SDS011;36992;48.200;12.418;2023-03-14T09:14:27;0.50;;;0.20;;
50976;SDS011;36992;48.200;12.418;2023-03-14T09:16:53;0.65;;;0.10;;
50976;SDS011;36992;48.200;12.418;2023-03-14T09:19:21;0.63;;;0.08;;
50976;SDS011;36992;48.200;12.418;2023-03-14T09:21:48;0.85;;;0.15;;
50976;SDS011;36992;48.200;12.418;2023-03-14T09:24:14;0.55;;;0.15;;
50976;SDS011;36992;48.200;12.418;2023-03-14T09:26:41;0.32;;;0.10;;
50976;SDS011;36992;48.200;12.418;2023-03-14T09:29:07;1.08;;;0.20;;
50976;SDS011;36992;48.200;12.418;2023-03-14T09:31:34;4.15;;;0.90;;
50976;SDS011;36992;48.200;12.418;2023-03-14T09:34:01;2.50;;;0.77;;
50976;SDS011;36992;48.200;12.418;2023-03-14T09:36:29;2.28;;;0.70;;
50976;SDS011;36992;48.200;12.418;2023-03-14T09:38:56;1.38;;;0.60;;
50976;SDS011;36992;48.200;12.418;2023-03-14T09:41:23;2.65;;;0.55;;
50976;SDS011;36992;48.200;12.418;2023-03-14T09:43:53;2.63;;;0.60;;
50976;SDS011;36992;48.200;12.418;2023-03-14T09:46:26;1.73;;;0.50;;
50976;SDS011;36992;48.200;12.418;2023-03-14T09:48:54;2.13;;;0.68;;
50976;SDS011;36992;48.200;12.418;2023-03-14T09:51:21;1.67;;;0.60;;
50976;SDS011;36992;48.200;12.418;2023-03-14T09:53:50;2.08;;;0.88;;
50976;SDS011;36992;48.200;12.418;2023-03-14T09:56:17;2.47;;;0.80;;
50976;SDS011;36992;48.200;12.418;2023-03-14T09:58:47;1.38;;;0.38;;
50976;SDS011;36992;48.200;12.418;2023-03-14T10:01:17;0.82;;;0.20;;
50976;SDS011;36992;48.200;12.418;2023-03-14T10:03:48;0.93;;;0.20;;
50976;SDS011;36992;48.200;12.418;2023-03-14T10:06:19;0.43;;;0.13;;
50976;SDS011;36992;48.200;12.418;2023-03-14T10:08:49;0.90;;;0.22;;
50976;SDS011;36992;48.200;12.418;2023-03-14T10:11:20;0.70;;;0.20;;
50976;SDS011;36992;48.200;12.418;2023-03-14T10:13:48;0.35;;;0.10;;
50976;SDS011;36992;48.200;12.418;2023-03-14T10:16:16;1.23;;;0.13;;
50976;SDS011;36992;48.200;12.418;2023-03-14T10:18:44;0.28;;;0.05;;
50976;SDS011;36992;48.200;12.418;2023-03-14T10:21:17;0.50;;;0.10;;
50976;SDS011;36992;48.200;12.418;2023-03-14T10:23:52;0.32;;;0.13;;
50976;SDS011;36992;48.200;12.418;2023-03-14T10:26:18;0.50;;;0.20;;
50976;SDS011;36992;48.200;12.418;2023-03-14T10:28:51;0.75;;;0.25;;
50976;SDS011;36992;48.200;12.418;2023-03-14T10:31:18;0.43;;;0.10;;
50976;SDS011;36992;48.200;12.418;2023-03-14T10:33:57;0.60;;;0.08;;
50976;SDS011;36992;48.200;12.418;2023-03-14T10:36:27;0.40;;;0.10;;
50976;SDS011;36992;48.200;12.418;2023-03-14T10:38:58;0.43;;;0.10;;
50976;SDS011;36992;48.200;12.418;2023-03-14T10:41:48;0.25;;;0.10;;
50976;SDS011;36992;48.200;12.418;2023-03-14T10:44:19;0.25;;;0.10;;
50976;SDS011;36992;48.200;12.418;2023-03-14T10:46:54;0.47;;;0.10;;
50976;SDS011;36992;48.200;12.418;2023-03-14T10:49:25;0.25;;;0.10;;
50976;SDS011;36992;48.200;12.418;2023-03-14T10:51:54;0.43;;;0.10;;
50976;SDS011;36992;48.200;12.418;2023-03-14T10:54:22;0.20;;;0.10;;
50976;SDS011;36992;48.200;12.418;2023-03-14T10:56:56;0.85;;;0.10;;
50976;SDS011;36992;48.200;12.418;2023-03-14T10:59:24;1.75;;;0.10;;
50976;SDS011;36992;48.200;12.418;2023-03-14T11:01:55;0.25;;;0.00;;
50976;SDS011;36992;48.200;12.418;2023-03-14T11:04:31;0.17;;;0.00;;
50976;SDS011;36992;48.200;12.418;2023-03-14T11:07:14;0.20;;;0.00;;
50976;SDS011;36992;48.200;12.418;2023-03-14T11:09:49;0.52;;;0.00;;
50976;SDS011;36992;48.200;12.418;2023-03-14T11:12:35;0.40;;;0.00;;
50976;SDS011;36992;48.200;12.418;2023-03-14T11:15:10;0.35;;;0.00;;
50976;SDS011;36992;48.200;12.418;2023-03-14T11:20:23;0.03;;;0.00;;
50976;SDS011;36992;48.200;12.418;2023-03-14T11:22:59;0.10;;;0.00;;
50976;SDS011;36992;48.200;12.418;2023-03-14T11:25:36;0.17;;;0.00;;
50976;SDS011;36992;48.200;12.418;2023-03-14T11:30:42;0.00;;;0.00;;
50976;SDS011;36992;48.200;12.418;2023-03-14T11:33:17;0.75;;;0.10;;
50976;SDS011;36992;48.200;12.418;2023-03-14T11:35:51;0.08;;;0.00;;
50976;SDS011;36992;48.200;12.418;2023-03-14T11:38:27;1.30;;;0.10;;
50976;SDS011;36992;48.200;12.418;2023-03-14T11:40:59;0.40;;;0.10;;
50976;SDS011;36992;48.200;12.418;2023-03-14T11:43:28;1.42;;;0.20;;
50976;SDS011;36992;48.200;12.418;2023-03-14T11:45:58;0.40;;;0.20;;
50976;SDS011;36992;48.200;12.418;2023-03-14T11:48:33;0.82;;;0.10;;
50976;SDS011;36992;48.200;12.418;2023-03-14T11:51:07;0.38;;;0.00;;
50976;SDS011;36992;48.200;12.418;2023-03-14T11:53:40;0.28;;;0.00;;
50976;SDS011;36992;48.200;12.418;2023-03-14T11:56:16;0.63;;;0.00;;
50976;SDS011;36992;48.200;12.418;2023-03-14T11:58:50;0.40;;;0.10;;
50976;SDS011;36992;48.200;12.418;2023-03-14T12:01:21;0.15;;;0.05;;
50976;SDS011;36992;48.200;12.418;2023-03-14T12:03:52;0.68;;;0.10;;
50976;SDS011;36992;48.200;12.418;2023-03-14T12:06:24;0.10;;;0.00;;
50976;SDS011;36992;48.200;12.418;2023-03-14T12:08:54;0.40;;;0.00;;
50976;SDS011;36992;48.200;12.418;2023-03-14T12:11:31;0.77;;;0.20;;
50976;SDS011;36992;48.200;12.418;2023-03-14T12:14:01;0.60;;;0.10;;
50976;SDS011;36992;48.200;12.418;2023-03-14T12:16:32;0.73;;;0.10;;
50976;SDS011;36992;48.200;12.418;2023-03-14T12:19:14;0.80;;;0.10;;
50976;SDS011;36992;48.200;12.418;2023-03-14T12:21:53;0.50;;;0.08;;
50976;SDS011;36992;48.200;12.418;2023-03-14T12:24:24;0.77;;;0.10;;
50976;SDS011;36992;48.200;12.418;2023-03-14T12:26:56;0.57;;;0.00;;
50976;SDS011;36992;48.200;12.418;2023-03-14T12:29:24;0.73;;;0.00;;
50976;SDS011;36992;48.200;12.418;2023-03-14T12:32:06;0.28;;;0.00;;
50976;SDS011;36992;48.200;12.418;2023-03-14T12:34:34;0.20;;;0.00;;
50976;SDS011;36992;48.200;12.418;2023-03-14T12:37:06;0.10;;;0.10;;
50976;SDS011;36992;48.200;12.418;2023-03-14T12:39:44;0.10;;;0.00;;
50976;SDS011;36992;48.200;12.418;2023-03-14T12:42:20;0.10;;;0.00;;
50976;SDS011;36992;48.200;12.418;2023-03-14T12:45:13;0.17;;;0.00;;
50976;SDS011;36992;48.200;12.418;2023-03-14T12:47:50;0.10;;;0.00;;
50976;SDS011;36992;48.200;12.418;2023-03-14T12:50:21;0.40;;;0.05;;
50976;SDS011;36992;48.200;12.418;2023-03-14T12:55:58;2.22;;;0.10;;
50976;SDS011;36992;48.200;12.418;2023-03-14T12:58:34;0.10;;;0.00;;
50976;SDS011;36992;48.200;12.418;2023-03-14T13:01:05;0.30;;;0.10;;
50976;SDS011;36992;48.200;12.418;2023-03-14T13:06:11;0.38;;;0.00;;
50976;SDS011;36992;48.200;12.418;2023-03-14T13:08:38;2.25;;;0.00;;
50976;SDS011;36992;48.200;12.418;2023-03-14T13:11:08;0.08;;;0.08;;
50976;SDS011;36992;48.200;12.418;2023-03-14T13:13:42;0.30;;;0.00;;
50976;SDS011;36992;48.200;12.418;2023-03-14T13:16:14;0.25;;;0.00;;
50976;SDS011;36992;48.200;12.418;2023-03-14T13:18:43;0.35;;;0.10;;
50976;SDS011;36992;48.200;12.418;2023-03-14T13:21:12;0.35;;;0.00;;
50976;SDS011;36992;48.200;12.418;2023-03-14T13:23:42;0.10;;;0.00;;
50976;SDS011;36992;48.200;12.418;2023-03-14T13:26:20;0.25;;;0.00;;
50976;SDS011;36992;48.200;12.418;2023-03-14T13:28:49;0.10;;;0.00;;
50976;SDS011;36992;48.200;12.418;2023-03-14T13:31:18;0.52;;;0.10;;
50976;SDS011;36992;48.200;12.418;2023-03-14T13:33:56;0.10;;;0.00;;
50976;SDS011;36992;48.200;12.418;2023-03-14T13:36:23;0.28;;;0.00;;
50976;SDS011;36992;48.200;12.418;2023-03-14T13:38:55;0.30;;;0.00;;
50976;SDS011;36992;48.200;12.418;2023-03-14T13:41:22;2.03;;;0.20;;
50976;SDS011;36992;48.200;12.418;2023-03-14T13:43:51;0.63;;;0.20;;
50976;SDS011;36992;48.200;12.418;2023-03-14T13:46:19;0.60;;;0.30;;
50976;SDS011;36992;48.200;12.418;2023-03-14T13:48:48;0.15;;;0.00;;
50976;SDS011;36992;48.200;12.418;2023-03-14T13:51:16;0.15;;;0.00;;
50976;SDS011;36992;48.200;12.418;2023-03-14T13:53:46;0.35;;;0.10;;
50976;SDS011;36992;48.200;12.418;2023-03-14T13:56:14;0.20;;;0.05;;
50976;SDS011;36992;48.200;12.418;2023-03-14T13:58:40;0.20;;;0.10;;
50976;SDS011;36992;48.200;12.418;2023-03-14T14:01:12;0.98;;;0.10;;
50976;SDS011;36992;48.200;12.418;2023-03-14T14:03:41;0.30;;;0.00;;
50976;SDS011;36992;48.200;12.418;2023-03-14T14:06:11;0.30;;;0.10;;
50976;SDS011;36992;48.200;12.418;2023-03-14T14:08:47;0.22;;;0.10;;
50976;SDS011;36992;48.200;12.418;2023-03-14T14:11:17;0.40;;;0.10;;
50976;SDS011;36992;48.200;12.418;2023-03-14T14:13:48;0.25;;;0.10;;
50976;SDS011;36992;48.200;12.418;2023-03-14T14:16:17;0.63;;;0.30;;
50976;SDS011;36992;48.200;12.418;2023-03-14T14:18:48;0.93;;;0.20;;
50976;SDS011;36992;48.200;12.418;2023-03-14T14:21:15;0.45;;;0.10;;
50976;SDS011;36992;48.200;12.418;2023-03-14T14:23:41;2.00;;;0.00;;
50976;SDS011;36992;48.200;12.418;2023-03-14T14:26:13;0.17;;;0.00;;
50976;SDS011;36992;48.200;12.418;2023-03-14T14:28:42;0.10;;;0.00;;
50976;SDS011;36992;48.200;12.418;2023-03-14T14:31:18;0.10;;;0.00;;
50976;SDS011;36992;48.200;12.418;2023-03-14T14:33:52;2.03;;;0.10;;
50976;SDS011;36992;48.200;12.418;2023-03-14T14:36:21;0.30;;;0.00;;
50976;SDS011;36992;48.200;12.418;2023-03-14T14:38:50;0.10;;;0.00;;
50976;SDS011;36992;48.200;12.418;2023-03-14T14:41:26;0.10;;;0.05;;
50976;SDS011;36992;48.200;12.418;2023-03-14T14:43:53;0.40;;;0.00;;
50976;SDS011;36992;48.200;12.418;2023-03-14T14:46:22;0.10;;;0.00;;
50976;SDS011;36992;48.200;12.418;2023-03-14T14:48:54;0.20;;;0.10;;
50976;SDS011;36992;48.200;12.418;2023-03-14T14:51:23;0.65;;;0.00;;
50976;SDS011;36992;48.200;12.418;2023-03-14T14:54:00;0.28;;;0.00;;